Canberra International Airport

Airport
ICAO code: 
YSCB
IATA Code: 
CBR
Summary
ICAO Region: 
APAC
Territory: 
Location: 
Canberra, Australian Capital Territory
Serving: 
Canberra
Elevation: 
1888 ft
Coordinates: 
Aerial View: 
35° 18' 18.838" S, 149° 11' 36.216" E
Metar
Observation
YSCB 081100Z AUTO 07006KT 9999 // OVC016 14/11 Q1014
Station
Canberra
Date/Time
2021-12-08 11:00:00
Wind direction
70°
Wind speed
06 kts
Lowest cloud amount
overcast
Temperature
14°C
Dew point
11°C
Humidity
82%
QNH
1014 hPa
Weather condition
n/a

Runways

Designator Length Width Surface Rops
12/30 1679 45 ASP Yes/Yes
17/35 2683 45 ASP Yes/Yes
Airport map: 
Aerial View: 

Accidents and Serious Incidents at or in the vicinity of YSCB

SKYbrary Partners:

Safety knowledge contributed by: